Airfield :
LOGIN :

Register | Disclaimer

   EN    FR    IT 

 










Legend :    VFR   Marginal VFR   IFR   Intensive IFR   Very Intensive IFR
Visi :
Ceiling :
>= 8 km
>= 3000ft
5 to 8 km
1000 to 3000 ft
1500m to 5 km
500 to 1000 ft
800 to 1500m
200 to 500 ft
< 800m
< 200 ft
Symbols :   Thunderstorms  Fog  Heavy snow  Heavy precipitations  Wind > 20 kt
SIGMETs :     Misc.  Thunderstorms  Icing  Turbulence  Mountain Waves  Volcanic Ashes







- Airport Elevation : 3 ft
- IATA code : LWR


EHLW - Leuuwarden Air Base

CURRENT METAR :
  • 190225Z AUTO 30012KT 9999 FEW015CB BKN032 BKN040 07/05 Q1011 BLU

EXPIRED METARs :
  • 190212Z AUTO 30014KT 260V320 9999 -SHRA FEW008 FEW015CB BKN029 BKN036 06/05 Q1012 BLU
  • 190200Z AUTO 29012KT 230V320 9999 -RA FEW015CB SCT024 BKN027 07/04 Q1011 WHT
  • 190155Z AUTO 29012KT 230V320 9999 -UP FEW015CB SCT027 07/04 Q1011 BLU
  • 190125Z AUTO 29013KT 250V320 9999 FEW015CB 06/03 Q1012 RERA BLU
  • 190115Z AUTO 30014KT 260V320 9999 FEW015CB SCT031 BKN037 06/04 Q1012 BLU
  • 190105Z AUTO 30014KT 260V340 9999 FEW015CB SCT025 BKN030 06/04 Q1012 BLU
  • 190055Z AUTO 30011G24KT 260V350 9999 RA FEW015CB SCT030 BKN035 06/03 Q1012 BLU
  • 190025Z AUTO 29012KT 250V320 9999 FEW026 BKN052 06/03 Q1012 BLU
  • 182355Z AUTO 30011KT 260V320 9999 FEW064 06/02 Q1012 BLU

Expired Forecast.
No reported NOTAMs for that airfield.



MET'MAP, your aeronautical weather chart ! - Copyright ORBIFLY December 2007 - Disclaimer

ORBIFLY MET'MAP TEAM :

Programming & Development : Alexandra Zaïnal
Concept & Development : Baudouin d'Aumeries
Co-Development & Prog : Marc-Olivier Méhu
Technical & hardware support : Manuel Goepfert

Contact : metmap@orbifly.com




SOURCES & CREDITS :

   NOAA